createdAt,value
2018-09-22T00:00:26.536Z,12.36
2018-09-22T00:02:55.714Z,12.35
2018-09-22T00:05:24.987Z,12.36
2018-09-22T00:07:54.216Z,12.30
2018-09-22T00:10:23.440Z,12.28
2018-09-22T00:12:52.671Z,12.16
2018-09-22T00:15:21.899Z,12.21
2018-09-22T00:17:51.117Z,12.08
2018-09-22T00:20:20.400Z,12.00
2018-09-22T00:22:49.642Z,12.13
2018-09-22T00:25:18.842Z,12.15
2018-09-22T00:27:48.020Z,12.13
2018-09-22T00:30:17.611Z,12.09
2018-09-22T00:32:46.814Z,12.07
2018-09-22T00:35:16.879Z,12.02
2018-09-22T00:37:46.076Z,12.06
2018-09-22T00:40:16.931Z,12.11
2018-09-22T00:42:46.116Z,12.11
2018-09-22T00:45:16.920Z,12.09
2018-09-22T00:47:46.864Z,12.03
2018-09-22T00:50:18.019Z,12.05
2018-09-22T00:52:47.227Z,12.08
2018-09-22T00:55:18.468Z,12.18
2018-09-22T00:57:47.717Z,12.22
2018-09-22T01:00:17.781Z,12.29
2018-09-22T01:02:46.981Z,12.23
2018-09-22T01:05:17.648Z,12.19
2018-09-22T01:07:46.855Z,12.27
2018-09-22T01:10:17.020Z,12.24
2018-09-22T01:12:46.208Z,12.15
2018-09-22T01:15:16.785Z,12.27
2018-09-22T01:17:45.973Z,12.19
2018-09-22T01:20:16.819Z,12.23
2018-09-22T01:22:46.037Z,12.19
2018-09-22T01:25:16.397Z,12.15
2018-09-22T01:27:45.619Z,12.18
2018-09-22T01:30:16.842Z,12.16
2018-09-22T01:32:46.063Z,12.15
2018-09-22T01:35:16.443Z,12.03
2018-09-22T01:37:45.614Z,12.10
2018-09-22T01:40:16.445Z,12.08
2018-09-22T01:42:45.728Z,12.03
2018-09-22T01:45:15.984Z,11.93
2018-09-22T01:47:45.186Z,11.88
2018-09-22T01:50:15.931Z,11.97
2018-09-22T01:52:45.145Z,11.92
2018-09-22T01:55:15.010Z,11.92
2018-09-22T01:57:44.178Z,12.02
2018-09-22T02:00:15.427Z,11.95
2018-09-22T02:02:44.644Z,12.01
2018-09-22T02:05:15.300Z,12.00
2018-09-22T02:07:44.634Z,11.98
2018-09-22T02:10:15.471Z,11.98
2018-09-22T02:12:44.665Z,11.90
2018-09-22T02:15:15.128Z,11.92
2018-09-22T02:17:44.324Z,11.79
2018-09-22T02:20:14.201Z,11.76
2018-09-22T02:22:43.407Z,11.67
2018-09-22T02:25:13.175Z,11.66
2018-09-22T02:27:42.410Z,11.61
2018-09-22T02:30:12.407Z,11.64
2018-09-22T02:32:41.598Z,11.79
2018-09-22T02:35:10.868Z,11.76
2018-09-22T02:37:40.084Z,11.73
2018-09-22T02:40:09.306Z,11.62
2018-09-22T02:42:38.548Z,11.71
2018-09-22T02:45:08.084Z,11.70
2018-09-22T02:47:37.345Z,11.79
2018-09-22T02:50:06.602Z,11.78
2018-09-22T02:52:35.800Z,11.59
2018-09-22T02:55:05.232Z,11.55
2018-09-22T02:57:34.428Z,11.50
2018-09-22T03:00:03.724Z,11.46
2018-09-22T03:02:32.923Z,11.52
2018-09-22T03:07:42.139Z,11.46
2018-09-22T03:10:11.707Z,11.43
2018-09-22T03:12:41.511Z,11.37
2018-09-22T03:15:10.805Z,11.48
2018-09-22T03:17:40.020Z,11.43
2018-09-22T03:20:09.389Z,11.58
2018-09-22T03:22:38.571Z,11.61
2018-09-22T03:25:07.835Z,11.58
2018-09-22T03:27:39.879Z,11.64
2018-09-22T03:30:09.288Z,11.61
2018-09-22T03:32:38.660Z,11.76
2018-09-22T03:35:07.909Z,11.80
2018-09-22T03:37:37.117Z,11.77
2018-09-22T03:40:06.544Z,11.81
2018-09-22T03:42:35.741Z,11.72
2018-09-22T03:45:05.055Z,11.74
2018-09-22T03:47:34.252Z,11.83
2018-09-22T03:50:03.467Z,11.77
2018-09-22T03:52:32.905Z,11.83
2018-09-22T03:55:02.106Z,11.86
2018-09-22T03:57:31.300Z,11.76
2018-09-22T04:00:00.483Z,11.72
2018-09-22T04:02:29.768Z,11.70
2018-09-22T04:04:59.000Z,11.76
2018-09-22T04:07:28.214Z,11.75
2018-09-22T04:09:57.430Z,11.84
2018-09-22T04:12:26.771Z,11.78
2018-09-22T04:14:55.951Z,11.83
2018-09-22T04:17:25.214Z,11.87
2018-09-22T04:19:54.540Z,11.82
2018-09-22T04:22:23.753Z,11.74
2018-09-22T04:24:52.932Z,11.79
2018-09-22T04:27:22.148Z,11.74
2018-09-22T04:29:51.406Z,11.94
2018-09-22T04:32:20.628Z,11.91
2018-09-22T04:34:49.862Z,11.77
2018-09-22T04:37:19.081Z,11.81
2018-09-22T04:39:48.243Z,11.72
2018-09-22T04:42:17.440Z,11.83
2018-09-22T04:44:46.636Z,11.73
2018-09-22T04:47:15.867Z,11.68
2018-09-22T04:49:45.084Z,11.70
2018-09-22T04:52:14.317Z,11.75
2018-09-22T04:54:43.469Z,11.68
2018-09-22T04:57:12.705Z,11.70
2018-09-22T04:59:41.946Z,11.74
2018-09-22T05:02:11.350Z,11.77
2018-09-22T05:04:40.564Z,11.78
2018-09-22T05:07:10.096Z,11.68
2018-09-22T05:09:39.267Z,11.71
2018-09-22T05:12:08.927Z,11.73
2018-09-22T05:14:38.153Z,11.78
2018-09-22T05:17:07.744Z,11.73
2018-09-22T05:19:37.043Z,11.86
2018-09-22T05:22:06.298Z,11.84
2018-09-22T05:24:35.518Z,11.71
2018-09-22T05:27:05.084Z,11.67
2018-09-22T05:29:34.518Z,11.61
2018-09-22T05:32:03.815Z,11.71
2018-09-22T05:34:33.064Z,11.76
2018-09-22T05:37:02.328Z,11.71
2018-09-22T05:39:31.644Z,11.60
2018-09-22T05:42:00.919Z,11.63
2018-09-22T05:44:30.113Z,11.73
2018-09-22T05:46:59.319Z,11.72
2018-09-22T05:49:28.523Z,11.84
2018-09-22T05:51:57.729Z,11.89
2018-09-22T05:54:26.890Z,11.95
2018-09-22T05:56:56.146Z,12.00
2018-09-22T05:59:25.311Z,11.96
2018-09-22T06:01:54.620Z,12.01
2018-09-22T06:04:23.808Z,12.18
2018-09-22T06:06:53.097Z,12.20
2018-09-22T06:09:22.376Z,12.22
2018-09-22T06:11:51.612Z,12.22
2018-09-22T06:14:20.820Z,12.32
2018-09-22T06:16:50.159Z,12.37
2018-09-22T06:19:19.357Z,12.57
2018-09-22T06:21:48.908Z,12.86
2018-09-22T06:24:18.104Z,12.86
2018-09-22T06:26:47.376Z,12.99
2018-09-22T06:29:16.595Z,13.02
2018-09-22T06:31:45.874Z,13.16
2018-09-22T06:34:15.067Z,13.31
2018-09-22T06:36:44.310Z,13.23
2018-09-22T06:39:13.506Z,13.41
2018-09-22T06:41:42.780Z,13.44
2018-09-22T06:44:12.053Z,13.25
2018-09-22T06:46:41.227Z,13.22
2018-09-22T06:49:10.409Z,13.39
2018-09-22T06:51:39.639Z,13.41
2018-09-22T06:54:09.276Z,13.41
2018-09-22T06:56:38.508Z,13.43
2018-09-22T06:59:08.099Z,13.60
2018-09-22T07:01:37.396Z,13.77
2018-09-22T07:04:07.002Z,13.88
2018-09-22T07:06:36.215Z,14.01
2018-09-22T07:09:07.179Z,14.88
2018-09-22T07:11:36.432Z,15.32
2018-09-22T07:14:05.640Z,15.42
2018-09-22T07:16:34.855Z,15.56
2018-09-22T07:19:04.051Z,15.44
2018-09-22T07:21:38.467Z,15.43
2018-09-22T07:24:08.089Z,15.24
2018-09-22T07:26:37.310Z,14.92
2018-09-22T07:29:06.567Z,14.94
2018-09-22T07:31:35.840Z,14.88
2018-09-22T07:34:05.967Z,15.08
2018-09-22T07:36:35.227Z,15.15
2018-09-22T07:39:06.471Z,15.18
2018-09-22T07:41:35.707Z,15.27
2018-09-22T07:44:04.973Z,15.37
2018-09-22T07:46:34.271Z,15.52
2018-09-22T07:49:03.695Z,15.86
2018-09-22T07:51:32.988Z,15.71
2018-09-22T07:54:02.244Z,15.80
2018-09-22T07:56:31.467Z,15.98
2018-09-22T07:59:31.040Z,15.99
2018-09-22T08:02:00.359Z,16.12
2018-09-22T08:04:29.580Z,16.15
2018-09-22T08:06:59.783Z,16.34
2018-09-22T08:09:28.942Z,16.90
2018-09-22T08:11:58.203Z,17.09
2018-09-22T08:14:27.363Z,17.38
2018-09-22T08:16:56.607Z,17.32
2018-09-22T08:19:25.819Z,17.36
2018-09-22T08:21:55.213Z,17.40
2018-09-22T08:24:24.454Z,17.84
2018-09-22T08:26:53.742Z,17.85
2018-09-22T08:29:23.043Z,18.07
2018-09-22T08:31:52.495Z,17.87
2018-09-22T08:34:21.722Z,18.02
2018-09-22T08:36:51.087Z,18.01
2018-09-22T08:39:20.188Z,18.20
2018-09-22T08:41:49.434Z,18.20
2018-09-22T08:44:18.617Z,18.13
2018-09-22T08:46:47.879Z,17.78
2018-09-22T08:49:17.115Z,17.55
2018-09-22T08:51:46.347Z,17.74
2018-09-22T08:54:15.555Z,18.01
2018-09-22T08:56:44.805Z,18.02
2018-09-22T08:59:14.070Z,17.79
2018-09-22T09:01:43.342Z,17.74
2018-09-22T09:04:12.573Z,18.04
2018-09-22T09:06:41.778Z,17.97
2018-09-22T09:09:11.342Z,17.54
2018-09-22T09:11:40.610Z,18.09
2018-09-22T09:14:10.314Z,17.96
2018-09-22T09:16:39.529Z,17.72
2018-09-22T09:19:09.179Z,17.76
2018-09-22T09:21:38.412Z,17.54
2018-09-22T09:24:08.069Z,17.40
2018-09-22T09:26:37.330Z,17.59
2018-09-22T09:29:06.628Z,17.61
2018-09-22T09:31:35.874Z,17.69
2018-09-22T09:34:05.084Z,18.17
2018-09-22T09:36:34.395Z,18.23
2018-09-22T09:39:05.280Z,18.57
2018-09-22T09:41:34.471Z,18.74
2018-09-22T09:44:03.694Z,18.71
2018-09-22T09:46:32.948Z,18.67
2018-09-22T09:49:02.192Z,19.08
2018-09-22T09:51:31.407Z,19.09
2018-09-22T09:54:00.669Z,18.64
2018-09-22T09:56:29.938Z,18.84
2018-09-22T09:58:59.302Z,19.01
2018-09-22T10:01:29.920Z,18.73
2018-09-22T10:04:00.235Z,18.66
2018-09-22T10:06:30.644Z,18.65
2018-09-22T10:09:01.147Z,18.57
2018-09-22T10:11:31.687Z,18.71
2018-09-22T10:14:02.262Z,18.77
2018-09-22T10:16:31.709Z,18.77
2018-09-22T10:19:00.931Z,18.72
2018-09-22T10:21:30.158Z,18.50
2018-09-22T10:23:59.466Z,18.45
2018-09-22T10:26:28.667Z,18.77
2018-09-22T10:28:57.903Z,18.91
2018-09-22T10:31:27.119Z,18.82
2018-09-22T10:33:56.487Z,18.76
2018-09-22T10:36:25.720Z,18.73
2018-09-22T10:38:54.948Z,18.96
2018-09-22T10:41:24.196Z,19.07
2018-09-22T10:43:53.440Z,19.08
2018-09-22T10:46:22.672Z,19.37
2018-09-22T10:48:51.971Z,19.36
2018-09-22T10:51:21.143Z,19.15
2018-09-22T10:53:51.396Z,19.12
2018-09-22T10:56:20.662Z,19.01
2018-09-22T10:58:49.887Z,19.25
2018-09-22T11:01:19.097Z,18.92
2018-09-22T11:03:48.438Z,19.12
2018-09-22T11:06:17.663Z,19.29
2018-09-22T11:08:46.881Z,19.07
2018-09-22T11:11:16.119Z,19.29
2018-09-22T11:13:45.342Z,19.56
2018-09-22T11:16:14.578Z,20.02
2018-09-22T11:18:43.863Z,19.84
2018-09-22T11:21:13.139Z,19.72
2018-09-22T11:23:42.332Z,19.53
2018-09-22T11:26:11.545Z,19.86
2018-09-22T11:28:40.813Z,20.08
2018-09-22T11:31:10.722Z,20.18
2018-09-22T11:33:39.920Z,20.60
2018-09-22T11:36:09.756Z,20.54
2018-09-22T11:38:38.968Z,20.99
2018-09-22T11:41:08.818Z,20.67
2018-09-22T11:43:38.055Z,20.67
2018-09-22T11:46:07.831Z,20.89
2018-09-22T11:48:37.019Z,21.13
2018-09-22T11:51:06.633Z,21.43
2018-09-22T11:53:35.836Z,20.88
2018-09-22T11:56:05.094Z,20.45
2018-09-22T11:58:34.254Z,20.23
2018-09-22T12:01:03.945Z,20.45
2018-09-22T12:03:33.154Z,19.84
2018-09-22T12:06:02.496Z,19.96
2018-09-22T12:08:31.678Z,20.55
2018-09-22T12:11:00.891Z,20.75
2018-09-22T12:13:30.064Z,21.11
2018-09-22T12:15:59.312Z,20.82
2018-09-22T12:18:28.511Z,20.62
2018-09-22T12:20:57.767Z,20.57
2018-09-22T12:23:26.948Z,20.50
2018-09-22T12:25:56.186Z,20.26
2018-09-22T12:28:25.410Z,20.25
2018-09-22T12:30:54.619Z,20.28
2018-09-22T12:33:24.004Z,20.04
2018-09-22T12:35:53.270Z,20.05
2018-09-22T12:38:22.699Z,20.19
2018-09-22T12:40:51.959Z,20.59
2018-09-22T12:43:21.163Z,20.89
2018-09-22T12:45:50.372Z,20.89
2018-09-22T12:48:19.594Z,20.78
2018-09-22T12:50:48.837Z,20.59
2018-09-22T12:53:18.032Z,20.47
2018-09-22T12:55:47.239Z,20.52
2018-09-22T12:58:16.437Z,20.92
2018-09-22T13:00:45.759Z,20.88
2018-09-22T13:03:14.963Z,20.77
2018-09-22T13:05:44.223Z,20.72
2018-09-22T13:08:13.424Z,20.57
2018-09-22T13:10:42.683Z,20.66
2018-09-22T13:13:12.139Z,20.60
2018-09-22T13:15:41.380Z,20.49
2018-09-22T13:18:10.560Z,20.08
2018-09-22T13:20:39.944Z,20.21
2018-09-22T13:23:09.420Z,20.03
2018-09-22T13:25:38.682Z,19.79
2018-09-22T13:28:08.248Z,19.64
2018-09-22T13:30:37.486Z,19.69
2018-09-22T13:33:06.988Z,19.50
2018-09-22T13:35:36.194Z,19.30
2018-09-22T13:38:05.475Z,19.45
2018-09-22T13:40:34.757Z,19.51
2018-09-22T13:43:04.001Z,19.65
2018-09-22T13:45:33.207Z,19.73
2018-09-22T13:48:02.426Z,20.02
2018-09-22T13:50:31.673Z,20.38
2018-09-22T13:53:00.960Z,20.12
2018-09-22T13:55:30.179Z,20.06
2018-09-22T13:57:59.391Z,20.26
2018-09-22T14:00:28.620Z,20.32
2018-09-22T14:02:57.836Z,20.44
2018-09-22T14:05:27.087Z,20.28
2018-09-22T14:07:56.287Z,20.29
2018-09-22T14:10:25.522Z,20.05
2018-09-22T14:12:54.730Z,20.08
2018-09-22T14:15:23.953Z,20.01
2018-09-22T14:17:53.165Z,20.05
2018-09-22T14:20:23.832Z,19.99
2018-09-22T14:22:53.073Z,19.96
2018-09-22T14:25:22.335Z,19.88
2018-09-22T14:27:51.590Z,19.75
2018-09-22T14:30:20.840Z,19.77
2018-09-22T14:32:50.131Z,19.75
2018-09-22T14:35:19.449Z,19.69
2018-09-22T14:37:48.691Z,19.34
2018-09-22T14:40:17.944Z,19.28
2018-09-22T14:42:47.204Z,19.19
2018-09-22T14:45:16.436Z,19.03
2018-09-22T14:47:45.651Z,19.04
2018-09-22T14:50:14.927Z,19.13
2018-09-22T14:52:44.114Z,19.26
2018-09-22T14:55:13.379Z,19.27
2018-09-22T14:57:42.633Z,19.15
2018-09-22T15:00:12.193Z,19.20
2018-09-22T15:02:41.423Z,19.33
2018-09-22T15:05:12.657Z,19.38
2018-09-22T15:07:41.879Z,19.29
2018-09-22T15:10:12.274Z,19.19
2018-09-22T15:12:41.487Z,19.26
2018-09-22T15:15:12.100Z,19.05
2018-09-22T15:17:41.348Z,19.02
2018-09-22T15:20:12.038Z,19.01
2018-09-22T15:22:41.374Z,18.91
2018-09-22T15:25:11.635Z,18.62
2018-09-22T15:27:40.897Z,18.52
2018-09-22T15:30:11.311Z,18.28
2018-09-22T15:32:40.647Z,18.36
2018-09-22T15:35:11.020Z,18.26
2018-09-22T15:37:40.330Z,18.11
2018-09-22T15:40:10.001Z,18.16
2018-09-22T15:42:39.205Z,18.18
2018-09-22T15:45:10.144Z,18.34
2018-09-22T15:47:39.416Z,18.30
2018-09-22T15:50:09.133Z,18.20
2018-09-22T15:52:38.363Z,18.17
2018-09-22T15:55:08.991Z,18.33
2018-09-22T15:57:38.211Z,18.17
2018-09-22T16:00:09.329Z,18.12
2018-09-22T16:02:38.568Z,18.20
2018-09-22T16:05:09.119Z,18.03
2018-09-22T16:07:38.406Z,17.80
2018-09-22T16:10:07.834Z,17.71
2018-09-22T16:12:37.099Z,17.67
2018-09-22T16:15:06.433Z,17.63
2018-09-22T16:17:35.654Z,17.67
2018-09-22T16:20:04.931Z,17.48
2018-09-22T16:22:34.141Z,17.43
2018-09-22T16:25:03.346Z,17.32
2018-09-22T16:27:32.530Z,17.19
2018-09-22T16:30:01.723Z,17.11
2018-09-22T16:32:30.948Z,16.99
2018-09-22T16:35:00.174Z,17.08
2018-09-22T16:37:30.481Z,17.15
2018-09-22T16:39:59.979Z,17.09
2018-09-22T16:42:29.752Z,16.94
2018-09-22T16:44:58.938Z,16.93
2018-09-22T16:47:28.187Z,16.88
2018-09-22T16:49:57.323Z,16.77
2018-09-22T16:52:26.892Z,16.56
2018-09-22T16:54:56.072Z,16.49
2018-09-22T16:57:25.284Z,16.32
2018-09-22T16:59:54.512Z,16.16
2018-09-22T17:02:23.683Z,16.29
2018-09-22T17:04:52.867Z,16.20
2018-09-22T17:07:22.097Z,16.15
2018-09-22T17:09:51.355Z,16.23
2018-09-22T17:12:20.684Z,16.08
2018-09-22T17:14:49.897Z,15.99
2018-09-22T17:17:19.272Z,15.93
2018-09-22T17:19:48.475Z,15.85
2018-09-22T17:22:17.646Z,15.78
2018-09-22T17:24:46.900Z,15.85
2018-09-22T17:27:16.126Z,15.88
2018-09-22T17:29:45.383Z,15.89
2018-09-22T17:32:14.621Z,15.87
2018-09-22T17:34:43.904Z,15.86
2018-09-22T17:37:13.206Z,15.87
2018-09-22T17:39:42.443Z,15.88
2018-09-22T17:42:12.025Z,15.84
2018-09-22T17:44:41.473Z,15.80
2018-09-22T17:47:10.701Z,15.71
2018-09-22T17:49:41.946Z,15.60
2018-09-22T17:52:11.300Z,15.55
2018-09-22T17:54:41.313Z,15.48
2018-09-22T17:57:10.582Z,15.33
2018-09-22T17:59:39.844Z,15.28
2018-09-22T18:02:09.158Z,15.17
2018-09-22T18:04:38.363Z,15.11
2018-09-22T18:07:07.625Z,15.01
2018-09-22T18:09:36.789Z,14.87
2018-09-22T18:12:06.036Z,14.87
2018-09-22T18:14:35.227Z,14.83
2018-09-22T18:17:04.464Z,14.82
2018-09-22T18:19:33.640Z,14.82
2018-09-22T18:22:02.883Z,14.87
2018-09-22T18:24:32.069Z,14.76
2018-09-22T18:27:01.369Z,14.65
2018-09-22T18:29:30.800Z,14.63
2018-09-22T18:32:00.000Z,14.66
2018-09-22T18:34:29.168Z,14.66
2018-09-22T18:36:58.491Z,14.73
2018-09-22T18:39:27.782Z,14.69
2018-09-22T18:41:57.011Z,14.71
2018-09-22T18:44:26.204Z,14.70
2018-09-22T18:46:55.464Z,14.66
2018-09-22T18:49:24.882Z,14.56
2018-09-22T18:51:54.127Z,14.53
2018-09-22T18:54:23.315Z,14.62
2018-09-22T18:56:52.569Z,14.66
2018-09-22T18:59:21.775Z,14.71
2018-09-22T19:01:51.012Z,14.58
2018-09-22T19:04:20.259Z,14.58
2018-09-22T19:06:50.378Z,14.48
2018-09-22T19:09:19.679Z,14.57
2018-09-22T19:11:48.919Z,14.49
2018-09-22T19:14:21.381Z,14.57
2018-09-22T19:17:02.729Z,14.56
2018-09-22T19:19:35.592Z,14.60
2018-09-22T19:22:10.854Z,14.63
2018-09-22T19:24:43.508Z,14.52
2018-09-22T19:27:30.560Z,14.65
2018-09-22T19:30:33.123Z,14.66
2018-09-22T19:33:05.918Z,14.66
2018-09-22T19:35:38.357Z,14.60
2018-09-22T19:40:17.673Z,14.54
2018-09-22T19:42:50.771Z,14.44
2018-09-22T19:45:27.213Z,14.50
2018-09-22T19:47:59.831Z,14.43
2018-09-22T19:50:34.204Z,14.41
2018-09-22T19:53:03.433Z,14.45
2018-09-22T19:55:32.691Z,14.52
2018-09-22T19:58:02.024Z,14.51
2018-09-22T20:00:31.158Z,14.37
2018-09-22T20:03:00.366Z,14.49
2018-09-22T20:05:29.655Z,14.64
2018-09-22T20:07:58.923Z,14.43
2018-09-22T20:10:29.441Z,14.41
2018-09-22T20:12:58.707Z,14.55
2018-09-22T20:15:28.068Z,14.57
2018-09-22T20:17:57.304Z,14.58
2018-09-22T20:20:26.571Z,14.47
2018-09-22T20:22:55.970Z,14.42
2018-09-22T20:25:25.211Z,14.42
2018-09-22T20:27:54.436Z,14.28
2018-09-22T20:30:23.766Z,14.35
2018-09-22T20:32:53.856Z,14.35
2018-09-22T20:35:23.124Z,14.34
2018-09-22T20:37:52.343Z,14.37
2018-09-22T20:40:21.569Z,14.18
2018-09-22T20:42:50.750Z,14.17
2018-09-22T20:45:20.034Z,14.10
2018-09-22T20:47:49.275Z,14.02
2018-09-22T20:50:18.725Z,14.08
2018-09-22T20:52:47.956Z,14.00
2018-09-22T20:55:17.607Z,14.06
2018-09-22T20:57:46.876Z,14.06
2018-09-22T21:00:17.723Z,14.06
2018-09-22T21:02:46.944Z,14.08
2018-09-22T21:05:17.447Z,13.92
2018-09-22T21:07:46.700Z,13.85
2018-09-22T21:10:17.509Z,13.75
2018-09-22T21:12:46.754Z,13.78
2018-09-22T21:15:17.485Z,13.72
2018-09-22T21:17:46.694Z,13.81
2018-09-22T21:20:17.224Z,13.72
2018-09-22T21:22:46.406Z,13.72
2018-09-22T21:25:17.312Z,13.84
2018-09-22T21:27:46.526Z,13.70
2018-09-22T21:30:17.125Z,13.63
2018-09-22T21:32:46.314Z,13.82
2018-09-22T21:35:16.768Z,13.73
2018-09-22T21:37:46.016Z,13.58
2018-09-22T21:40:16.372Z,13.55
2018-09-22T21:42:45.637Z,13.57
2018-09-22T21:45:16.457Z,13.64
2018-09-22T21:47:45.683Z,13.59
2018-09-22T21:50:15.649Z,13.59
2018-09-22T21:52:44.842Z,13.73
2018-09-22T21:55:15.190Z,13.60
2018-09-22T21:57:44.415Z,13.66
2018-09-22T22:00:15.484Z,13.59
2018-09-22T22:02:44.695Z,13.59
2018-09-22T22:05:15.112Z,13.63
2018-09-22T22:07:44.320Z,13.57
2018-09-22T22:10:15.721Z,13.50
2018-09-22T22:12:44.940Z,13.57
2018-09-22T22:15:14.807Z,13.48
2018-09-22T22:17:44.012Z,13.46
2018-09-22T22:20:14.862Z,13.76
2018-09-22T22:22:44.119Z,13.74
2018-09-22T22:25:14.305Z,13.50
2018-09-22T22:27:43.496Z,13.46
2018-09-22T22:30:14.290Z,13.46
2018-09-22T22:32:43.448Z,13.46
2018-09-22T22:35:13.698Z,13.58
2018-09-22T22:37:42.918Z,13.56
2018-09-22T22:40:12.108Z,13.50
2018-09-22T22:42:41.359Z,13.67
2018-09-22T22:45:10.591Z,13.61
2018-09-22T22:47:39.782Z,13.58
2018-09-22T22:50:09.061Z,13.62
2018-09-22T22:52:38.283Z,13.54
2018-09-22T22:55:07.598Z,13.62
2018-09-22T22:57:36.935Z,13.71
2018-09-22T23:00:06.598Z,13.69
2018-09-22T23:02:36.036Z,13.58
2018-09-22T23:05:05.390Z,13.50
2018-09-22T23:07:34.636Z,13.57
2018-09-22T23:10:03.931Z,13.54
2018-09-22T23:12:33.225Z,13.62
2018-09-22T23:15:02.494Z,13.62
2018-09-22T23:17:31.718Z,13.51
2018-09-22T23:20:00.913Z,13.51
2018-09-22T23:22:30.181Z,13.53
2018-09-22T23:24:59.383Z,13.60
2018-09-22T23:27:28.590Z,13.68
2018-09-22T23:29:57.778Z,13.67
2018-09-22T23:32:26.974Z,13.57
2018-09-22T23:34:56.197Z,13.50
2018-09-22T23:37:25.377Z,13.52
2018-09-22T23:39:54.614Z,13.43
2018-09-22T23:42:23.870Z,13.33
2018-09-22T23:44:53.261Z,13.19
2018-09-22T23:47:22.504Z,13.28
2018-09-22T23:49:51.727Z,13.34
2018-09-22T23:52:21.171Z,13.23
2018-09-22T23:54:50.441Z,13.22
2018-09-22T23:57:19.683Z,13.20
2018-09-22T23:59:48.887Z,13.13
